createdAt,value
2022-08-21T00:02:17.063Z,15.70
2022-08-21T00:05:06.688Z,15.60
2022-08-21T00:07:57.627Z,15.50
2022-08-21T00:10:47.190Z,15.50
2022-08-21T00:13:36.697Z,15.60
2022-08-21T00:16:25.443Z,15.50
2022-08-21T00:19:14.386Z,15.60
2022-08-21T00:22:03.115Z,15.50
2022-08-21T00:24:53.310Z,15.50
2022-08-21T00:27:43.262Z,15.40
2022-08-21T00:30:32.597Z,15.30
2022-08-21T00:33:21.587Z,15.30
2022-08-21T00:36:11.727Z,15.30
2022-08-21T00:39:00.462Z,15.30
2022-08-21T00:41:50.637Z,15.30
2022-08-21T00:44:39.385Z,15.30
2022-08-21T00:47:28.086Z,15.30
2022-08-21T00:50:21.514Z,15.30
2022-08-21T00:53:13.186Z,15.30
2022-08-21T00:56:03.431Z,15.30
2022-08-21T00:58:56.291Z,15.30
2022-08-21T01:01:45.100Z,15.30
2022-08-21T01:04:33.849Z,15.30
2022-08-21T01:07:22.613Z,15.30
2022-08-21T01:10:23.834Z,15.20
2022-08-21T01:13:15.562Z,15.10
2022-08-21T01:16:11.297Z,15.10
2022-08-21T01:18:59.996Z,15.00
2022-08-21T01:21:50.556Z,15.00
2022-08-21T01:24:39.612Z,14.90
2022-08-21T01:27:28.358Z,15.00
2022-08-21T01:30:21.059Z,14.90
2022-08-21T01:33:09.839Z,14.90
2022-08-21T01:35:58.734Z,14.90
2022-08-21T01:38:49.072Z,14.80
2022-08-21T01:41:37.841Z,14.80
2022-08-21T01:44:27.291Z,14.80
2022-08-21T01:47:18.646Z,14.80
2022-08-21T01:50:10.042Z,14.80
2022-08-21T01:52:58.939Z,14.70
2022-08-21T01:55:49.371Z,14.70
2022-08-21T01:58:38.596Z,14.70
2022-08-21T02:01:27.372Z,14.60
2022-08-21T02:04:16.198Z,14.70
2022-08-21T02:07:05.667Z,14.70
2022-08-21T02:09:57.196Z,14.70
2022-08-21T02:12:47.963Z,14.60
2022-08-21T02:15:37.040Z,14.60
2022-08-21T02:18:25.754Z,14.60
2022-08-21T02:21:14.653Z,14.50
2022-08-21T02:24:04.013Z,14.50
2022-08-21T02:26:52.768Z,14.40
2022-08-21T02:29:42.918Z,14.40
2022-08-21T02:32:32.243Z,14.40
2022-08-21T02:35:21.650Z,14.40
2022-08-21T02:38:12.820Z,14.40
2022-08-21T02:41:02.545Z,14.30
2022-08-21T02:43:51.952Z,14.30
2022-08-21T02:46:42.120Z,14.30
2022-08-21T02:49:30.846Z,14.30
2022-08-21T02:52:19.586Z,14.30
2022-08-21T02:55:08.459Z,14.30
2022-08-21T02:57:58.631Z,14.30
2022-08-21T03:00:47.871Z,14.30
2022-08-21T03:03:39.366Z,14.30
2022-08-21T03:06:29.893Z,14.30
2022-08-21T03:09:18.632Z,14.30
2022-08-21T03:12:07.812Z,14.20
2022-08-21T03:14:56.506Z,14.30
2022-08-21T03:17:45.384Z,14.20
2022-08-21T03:20:36.882Z,14.20
2022-08-21T03:23:25.703Z,14.20
2022-08-21T03:26:21.369Z,14.20
2022-08-21T03:29:10.233Z,14.10
2022-08-21T03:31:59.099Z,14.20
2022-08-21T03:34:48.160Z,14.20
2022-08-21T03:37:38.582Z,14.20
2022-08-21T03:40:28.015Z,14.20
2022-08-21T03:43:16.782Z,14.10
2022-08-21T03:46:07.149Z,14.10
2022-08-21T03:48:56.722Z,14.10
2022-08-21T03:51:45.478Z,14.10
2022-08-21T03:54:35.637Z,14.10
2022-08-21T03:57:24.412Z,14.00
2022-08-21T04:00:14.585Z,14.00
2022-08-21T04:03:03.375Z,14.10
2022-08-21T04:05:52.406Z,14.10
2022-08-21T04:08:44.119Z,14.10
2022-08-21T04:11:34.251Z,14.10
2022-08-21T04:14:23.291Z,14.00
2022-08-21T04:17:12.020Z,14.00
2022-08-21T04:20:00.706Z,13.90
2022-08-21T04:22:49.929Z,13.90
2022-08-21T04:25:38.945Z,13.90
2022-08-21T04:28:31.199Z,13.90
2022-08-21T04:31:20.107Z,13.90
2022-08-21T04:34:08.910Z,13.90
2022-08-21T04:36:57.661Z,13.90
2022-08-21T04:39:49.365Z,13.90
2022-08-21T04:42:46.585Z,13.90
2022-08-21T04:45:38.663Z,13.90
2022-08-21T04:48:28.937Z,13.90
2022-08-21T04:51:23.819Z,13.90
2022-08-21T04:54:16.842Z,13.90
2022-08-21T04:57:12.190Z,13.90
2022-08-21T05:00:01.004Z,13.90
2022-08-21T05:02:55.502Z,13.90
2022-08-21T05:05:44.361Z,14.00
2022-08-21T05:08:33.674Z,14.00
2022-08-21T05:11:23.158Z,14.10
2022-08-21T05:14:15.291Z,14.10
2022-08-21T05:17:04.023Z,14.20
2022-08-21T05:19:56.963Z,14.20
2022-08-21T05:22:46.180Z,14.30
2022-08-21T05:25:34.899Z,14.30
2022-08-21T05:28:24.662Z,14.40
2022-08-21T05:31:15.657Z,14.40
2022-08-21T05:34:04.643Z,14.50
2022-08-21T05:36:54.874Z,14.60
2022-08-21T05:40:05.546Z,14.70
2022-08-21T05:42:54.657Z,14.70
2022-08-21T05:45:44.635Z,14.80
2022-08-21T05:48:34.350Z,14.90
2022-08-21T05:51:23.219Z,15.00
2022-08-21T05:54:13.554Z,15.10
2022-08-21T05:57:02.225Z,15.30
2022-08-21T05:59:51.299Z,15.40
2022-08-21T06:02:41.378Z,15.50
2022-08-21T06:05:36.658Z,15.70
2022-08-21T06:08:27.130Z,15.80
2022-08-21T06:11:17.290Z,16.00
2022-08-21T06:14:07.523Z,16.10
2022-08-21T06:16:56.245Z,16.20
2022-08-21T06:19:44.988Z,16.40
2022-08-21T06:22:35.240Z,16.50
2022-08-21T06:25:24.246Z,16.80
2022-08-21T06:28:14.743Z,16.90
2022-08-21T06:31:03.651Z,17.20
2022-08-21T06:33:52.971Z,17.40
2022-08-21T06:36:42.600Z,17.60
2022-08-21T06:39:32.388Z,17.90
2022-08-21T06:42:23.155Z,18.00
2022-08-21T06:45:18.214Z,18.20
2022-08-21T06:48:08.059Z,18.60
2022-08-21T06:50:57.107Z,19.10
2022-08-21T06:53:46.132Z,19.30
2022-08-21T06:56:36.587Z,19.30
2022-08-21T06:59:25.287Z,19.20
2022-08-21T07:02:15.444Z,19.10
2022-08-21T07:05:17.898Z,19.10
2022-08-21T07:08:07.093Z,19.10
2022-08-21T07:10:57.327Z,19.20
2022-08-21T07:13:46.296Z,19.20
2022-08-21T07:16:35.042Z,19.20
2022-08-21T07:19:25.520Z,19.20
2022-08-21T07:22:18.530Z,19.30
2022-08-21T07:25:08.849Z,19.40
2022-08-21T07:27:58.019Z,19.50
2022-08-21T07:30:48.224Z,19.60
2022-08-21T07:33:38.002Z,19.80
2022-08-21T07:36:28.370Z,19.80
2022-08-21T07:39:17.409Z,20.00
2022-08-21T07:42:08.549Z,20.10
2022-08-21T07:44:57.933Z,20.20
2022-08-21T07:47:46.621Z,20.20
2022-08-21T07:50:35.380Z,20.20
2022-08-21T07:53:25.617Z,20.40
2022-08-21T07:56:14.535Z,20.50
2022-08-21T07:59:03.895Z,20.50
2022-08-21T08:01:52.640Z,20.70
2022-08-21T08:04:51.001Z,21.10
2022-08-21T08:07:40.736Z,21.70
2022-08-21T08:10:30.951Z,22.30
2022-08-21T08:13:19.734Z,22.30
2022-08-21T08:16:09.112Z,22.30
2022-08-21T08:18:57.861Z,22.20
2022-08-21T08:21:46.865Z,22.10
2022-08-21T08:24:41.370Z,22.00
2022-08-21T08:27:31.470Z,21.90
2022-08-21T08:30:22.810Z,21.60
2022-08-21T08:33:11.975Z,21.50
2022-08-21T08:36:06.055Z,21.50
2022-08-21T08:38:57.078Z,21.90
2022-08-21T08:41:52.158Z,22.30
2022-08-21T08:44:58.494Z,22.40
2022-08-21T08:55:30.953Z,22.30
2022-08-21T08:58:24.542Z,22.20
2022-08-21T09:01:18.582Z,22.10
2022-08-21T09:04:15.130Z,22.10
2022-08-21T09:07:14.936Z,21.90
2022-08-21T09:10:16.516Z,21.90
2022-08-21T09:13:18.667Z,22.10
2022-08-21T09:16:17.576Z,22.20
2022-08-21T09:19:18.236Z,22.20
2022-08-21T09:22:24.872Z,22.00
2022-08-21T09:25:21.014Z,21.90
2022-08-21T09:28:18.577Z,21.90
2022-08-21T09:31:10.606Z,21.90
2022-08-21T09:34:03.876Z,22.10
2022-08-21T09:36:54.170Z,22.20
2022-08-21T09:39:48.240Z,22.40
2022-08-21T09:42:37.551Z,22.40
2022-08-21T09:45:26.590Z,22.40
2022-08-21T09:48:20.205Z,22.30
2022-08-21T09:51:12.669Z,22.20
2022-08-21T09:54:16.218Z,22.20
2022-08-21T09:57:36.264Z,22.40
2022-08-21T10:00:30.781Z,22.60
2022-08-21T10:03:25.514Z,22.70
2022-08-21T10:06:25.246Z,22.80
2022-08-21T10:09:21.475Z,22.70
2022-08-21T10:12:20.615Z,22.40
2022-08-21T10:15:21.150Z,22.50
2022-08-21T10:18:19.963Z,23.20
2022-08-21T10:21:20.082Z,23.70
2022-08-21T10:24:31.255Z,24.10
2022-08-21T10:27:34.406Z,24.30
2022-08-21T10:30:33.586Z,24.30
2022-08-21T10:33:33.347Z,23.90
2022-08-21T10:36:28.674Z,23.60
2022-08-21T10:39:35.203Z,23.50
2022-08-21T10:42:37.047Z,23.40
2022-08-21T10:45:46.410Z,23.30
2022-08-21T10:48:43.534Z,23.20
2022-08-21T10:51:42.871Z,23.00
2022-08-21T10:54:43.619Z,22.90
2022-08-21T10:57:43.334Z,22.80
2022-08-21T11:00:50.317Z,22.90
2022-08-21T11:03:45.778Z,23.00
2022-08-21T11:06:39.872Z,23.10
2022-08-21T11:09:31.154Z,23.10
2022-08-21T11:12:31.326Z,23.10
2022-08-21T11:15:41.382Z,23.10
2022-08-21T11:18:35.116Z,23.30
2022-08-21T11:21:40.927Z,23.30
2022-08-21T11:24:34.232Z,23.30
2022-08-21T11:27:28.529Z,23.20
2022-08-21T11:30:17.914Z,23.20
2022-08-21T11:33:23.116Z,23.20
2022-08-21T11:36:21.223Z,23.10
2022-08-21T11:39:19.186Z,23.10
2022-08-21T11:42:16.663Z,23.30
2022-08-21T11:45:22.020Z,23.40
2022-08-21T11:48:36.425Z,23.40
2022-08-21T11:51:32.145Z,23.40
2022-08-21T11:54:29.724Z,23.50
2022-08-21T11:57:26.069Z,23.50
2022-08-21T12:00:21.805Z,23.50
2022-08-21T12:03:14.326Z,23.60
2022-08-21T12:06:08.652Z,23.70
2022-08-21T12:09:01.632Z,23.80
2022-08-21T12:11:52.993Z,24.00
2022-08-21T12:14:44.963Z,24.00
2022-08-21T12:17:39.774Z,24.10
2022-08-21T12:20:50.253Z,24.10
2022-08-21T12:24:47.925Z,24.20
2022-08-21T12:27:48.969Z,24.50
2022-08-21T12:30:40.356Z,24.60
2022-08-21T12:33:33.355Z,24.70
2022-08-21T12:36:28.634Z,25.00
2022-08-21T12:40:12.703Z,25.40
2022-08-21T12:44:09.296Z,25.80
2022-08-21T12:47:39.594Z,25.70
2022-08-21T12:50:42.520Z,26.30
2022-08-21T12:53:45.812Z,27.40
2022-08-21T12:56:41.732Z,28.60
2022-08-21T13:00:02.608Z,29.30
2022-08-21T13:03:11.383Z,29.20
2022-08-21T13:06:02.927Z,29.30
2022-08-21T13:09:00.379Z,29.00
2022-08-21T13:11:58.334Z,28.90
2022-08-21T13:14:51.815Z,28.50
2022-08-21T13:17:57.416Z,28.20
2022-08-21T13:20:48.962Z,27.70
2022-08-21T13:23:38.564Z,27.50
2022-08-21T13:26:28.077Z,27.10
2022-08-21T13:29:22.831Z,26.70
2022-08-21T13:32:25.037Z,26.60
2022-08-21T13:35:20.393Z,26.30
2022-08-21T13:38:10.627Z,26.10
2022-08-21T13:41:03.765Z,26.00
2022-08-21T13:44:02.178Z,25.90
2022-08-21T13:46:52.150Z,25.90
2022-08-21T13:49:44.454Z,25.90
2022-08-21T13:52:33.178Z,26.00
2022-08-21T13:55:23.391Z,26.00
2022-08-21T13:58:13.819Z,26.00
2022-08-21T14:01:04.908Z,25.90
2022-08-21T14:03:59.740Z,25.90
2022-08-21T14:06:49.545Z,25.90
2022-08-21T14:09:45.222Z,26.10
2022-08-21T14:12:43.122Z,26.60
2022-08-21T14:15:34.653Z,26.80
2022-08-21T14:18:26.544Z,26.70
2022-08-21T14:21:15.727Z,26.50
2022-08-21T14:24:11.372Z,26.60
2022-08-21T14:27:05.425Z,26.70
2022-08-21T14:30:01.110Z,26.60
2022-08-21T14:32:50.697Z,26.40
2022-08-21T14:35:40.196Z,26.30
2022-08-21T14:38:30.317Z,26.30
2022-08-21T14:41:22.575Z,26.40
2022-08-21T14:44:13.713Z,26.40
2022-08-21T14:47:04.991Z,26.30
2022-08-21T14:49:55.065Z,26.20
2022-08-21T14:52:44.174Z,26.20
2022-08-21T14:55:55.184Z,26.10
2022-08-21T14:58:46.173Z,26.10
2022-08-21T15:01:46.741Z,26.10
2022-08-21T15:04:37.736Z,25.90
2022-08-21T15:07:26.817Z,25.80
2022-08-21T15:10:15.667Z,25.70
2022-08-21T15:13:04.748Z,25.60
2022-08-21T15:15:54.273Z,25.40
2022-08-21T15:18:44.046Z,25.50
2022-08-21T15:21:34.182Z,25.30
2022-08-21T15:24:22.894Z,25.40
2022-08-21T15:27:12.848Z,25.40
2022-08-21T15:30:06.590Z,25.60
2022-08-21T15:32:55.513Z,25.50
2022-08-21T15:35:44.498Z,25.30
2022-08-21T15:38:34.666Z,25.20
2022-08-21T15:41:23.429Z,25.10
2022-08-21T15:44:13.892Z,25.10
2022-08-21T15:47:02.674Z,25.10
2022-08-21T15:49:51.404Z,25.00
2022-08-21T15:52:40.510Z,25.00
2022-08-21T15:55:30.739Z,25.10
2022-08-21T15:58:20.999Z,25.10
2022-08-21T16:01:09.843Z,25.20
2022-08-21T16:03:58.754Z,25.10
2022-08-21T16:06:54.005Z,25.10
2022-08-21T16:09:44.981Z,25.10
2022-08-21T16:12:39.512Z,25.00
2022-08-21T16:15:29.282Z,24.90
2022-08-21T16:18:20.062Z,24.90
2022-08-21T16:21:09.288Z,24.80
2022-08-21T16:23:58.012Z,24.70
2022-08-21T16:26:47.199Z,24.60
2022-08-21T16:29:48.660Z,24.60
2022-08-21T16:32:37.482Z,24.60
2022-08-21T16:35:26.414Z,24.50
2022-08-21T16:38:15.262Z,24.40
2022-08-21T16:41:04.178Z,24.30
2022-08-21T16:43:55.327Z,24.20
2022-08-21T16:46:45.590Z,24.20
2022-08-21T16:49:34.371Z,24.10
2022-08-21T16:52:23.129Z,24.00
2022-08-21T16:55:11.869Z,24.00
2022-08-21T16:58:01.221Z,23.90
2022-08-21T17:00:50.615Z,23.90
2022-08-21T17:03:43.284Z,23.80
2022-08-21T17:06:32.224Z,23.70
2022-08-21T17:09:20.998Z,23.60
2022-08-21T17:12:10.235Z,23.50
2022-08-21T17:15:02.320Z,23.50
2022-08-21T17:17:51.405Z,23.50
2022-08-21T17:20:41.833Z,23.40
2022-08-21T17:23:30.520Z,23.40
2022-08-21T17:26:19.706Z,23.40
2022-08-21T17:29:10.233Z,23.30
2022-08-21T17:31:59.126Z,23.30
2022-08-21T17:34:48.504Z,23.20
2022-08-21T17:37:38.930Z,23.10
2022-08-21T17:40:27.737Z,23.10
2022-08-21T17:43:17.018Z,23.00
2022-08-21T17:46:06.347Z,22.90
2022-08-21T17:48:55.429Z,22.90
2022-08-21T17:51:44.242Z,22.80
2022-08-21T17:54:34.514Z,22.50
2022-08-21T17:57:28.225Z,22.40
2022-08-21T18:00:20.906Z,22.30
2022-08-21T18:03:15.075Z,22.20
2022-08-21T18:06:03.777Z,22.10
2022-08-21T18:08:52.648Z,22.00
2022-08-21T18:11:44.456Z,21.90
2022-08-21T18:14:37.575Z,21.80
2022-08-21T18:17:28.535Z,21.60
2022-08-21T18:20:19.923Z,21.50
2022-08-21T18:23:08.677Z,21.40
2022-08-21T18:25:59.134Z,21.30
2022-08-21T18:28:49.563Z,21.20
2022-08-21T18:31:40.397Z,21.10
2022-08-21T18:34:34.375Z,21.00
2022-08-21T18:37:23.826Z,20.90
2022-08-21T18:40:13.034Z,20.80
2022-08-21T18:43:04.126Z,20.70
2022-08-21T18:45:54.673Z,20.70
2022-08-21T18:48:44.045Z,20.70
2022-08-21T18:51:33.177Z,20.70
2022-08-21T18:54:31.330Z,20.60
2022-08-21T18:57:25.844Z,20.50
2022-08-21T19:00:28.882Z,20.40
2022-08-21T19:03:23.580Z,20.40
2022-08-21T19:06:12.624Z,20.40
2022-08-21T19:09:02.155Z,20.30
2022-08-21T19:11:51.925Z,20.20
2022-08-21T19:14:40.985Z,20.20
2022-08-21T19:17:30.493Z,20.20
2022-08-21T19:20:26.218Z,20.10
2022-08-21T19:23:17.191Z,20.10
2022-08-21T19:26:08.828Z,20.10
2022-08-21T19:29:02.154Z,20.10
2022-08-21T19:31:50.972Z,20.10
2022-08-21T19:34:41.081Z,20.10
2022-08-21T19:37:31.289Z,20.00
2022-08-21T19:40:22.269Z,20.00
2022-08-21T20:26:49.219Z,18.90
2022-08-21T20:29:41.738Z,18.90
2022-08-21T20:32:34.302Z,19.00
2022-08-21T20:35:23.203Z,18.90
2022-08-21T20:38:11.950Z,18.80
2022-08-21T20:41:09.979Z,18.70
2022-08-21T20:44:14.513Z,18.70
2022-08-21T20:47:09.850Z,18.60
2022-08-21T20:50:03.629Z,18.60
2022-08-21T20:52:59.095Z,18.60
2022-08-21T20:55:50.547Z,18.60
2022-08-21T20:58:46.612Z,18.50
2022-08-21T21:01:37.770Z,18.50
2022-08-21T21:04:56.374Z,18.50
2022-08-21T21:08:15.909Z,18.40
2022-08-21T21:14:10.023Z,18.40
2022-08-21T21:17:33.739Z,18.40
2022-08-21T21:20:38.519Z,18.30
2022-08-21T21:23:41.916Z,18.30
2022-08-21T21:26:55.386Z,18.30
2022-08-21T21:30:04.141Z,18.30
2022-08-21T21:32:59.886Z,18.30
2022-08-21T21:36:14.063Z,18.20
2022-08-21T21:39:11.530Z,18.30
2022-08-21T21:42:30.276Z,18.30
2022-08-21T21:45:28.808Z,18.30
2022-08-21T21:48:27.092Z,18.30
2022-08-21T21:51:36.796Z,18.30
2022-08-21T21:54:46.672Z,18.30
2022-08-21T21:58:01.066Z,18.30
2022-08-21T22:01:09.422Z,18.30
2022-08-21T22:04:28.685Z,18.30
2022-08-21T22:07:53.968Z,18.20
2022-08-21T22:11:24.510Z,18.00
2022-08-21T22:14:23.353Z,18.00
2022-08-21T22:17:36.150Z,18.00
2022-08-21T22:20:35.223Z,18.00
2022-08-21T22:23:48.547Z,18.00
2022-08-21T22:31:00.849Z,18.00
2022-08-21T22:37:03.866Z,17.90
2022-08-21T22:43:02.768Z,18.00
2022-08-21T22:46:19.464Z,18.00
2022-08-21T22:49:12.302Z,18.10
2022-08-21T22:55:02.024Z,18.20
2022-08-21T22:58:18.983Z,18.20
2022-08-21T23:20:23.268Z,17.90
2022-08-21T23:23:46.265Z,17.90
2022-08-21T23:27:01.235Z,17.90
2022-08-21T23:29:58.266Z,17.90
2022-08-21T23:45:13.494Z,17.70
2022-08-21T23:54:30.331Z,17.60
2022-08-21T23:57:51.202Z,17.60
